Time;durP1;ratioP1;P1;durP2;ratioP2;P2;SDS_P1;SDS_P2;PMS_P1;PMS_P2;Temp;Humidity;BMP_temperature;BMP_pressure;BME280_temperature;BME280_humidity;BME280_pressure;Samples;Min_cycle;Max_cycle;Signal;HPM_P1;HPM_P2
2022/06/04 05:29:34;;;;;;;1.83;1.73;;;;;;;19.39;60.99;97275.84;6178262;23;20181;-93
2022/06/04 05:32:16;;;;;;;1.90;1.80;;;;;;;16.92;60.78;96836.34;6138011;23;20185;-93
2022/06/04 05:34:57;;;;;;;2.07;1.97;;;;;;;15.56;60.88;96587.00;6116098;23;20170;-92
2022/06/04 05:37:37;;;;;;;1.63;1.53;;;;;;;17.48;61.28;96917.09;6136635;23;20198;-93
2022/06/04 05:40:05;;;;;;;1.87;1.77;;;;;;;18.51;61.20;97097.91;6131961;23;20181;-94
2022/06/04 05:42:32;;;;;;;2.03;1.93;;;;;;;19.88;60.63;97378.66;6108749;23;20234;-92
2022/06/04 05:45:00;;;;;;;1.80;1.70;;;;;;;18.10;61.36;97026.91;6131932;23;20175;-93
2022/06/04 05:50:09;;;;;;;1.87;1.77;;;;;;;17.48;60.89;96948.47;6151004;23;20166;-90
2022/06/04 05:52:38;;;;;;;1.70;1.60;;;;;;;18.29;60.97;97036.88;6103749;23;20178;-90
2022/06/04 05:55:05;;;;;;;1.93;1.83;;;;;;;18.58;61.09;97115.13;6073513;23;20179;-91
2022/06/04 06:00:21;;;;;;;2.30;1.80;;;;;;;17.99;60.64;96990.06;6153630;23;20259;-92
2022/06/04 06:02:48;;;;;;;2.13;1.87;;;;;;;16.69;60.51;96763.59;6104394;23;20486;-93
2022/06/04 06:05:20;;;;;;;2.60;1.90;;;;;;;19.71;61.19;97310.03;6082893;23;20213;-90
2022/06/04 06:10:59;;;;;;;2.43;2.23;;;;;;;15.67;60.73;96602.63;6153167;23;20173;-91
2022/06/04 06:13:26;;;;;;;1.80;1.70;;;;;;;16.01;60.91;96638.50;6104610;23;20202;-93
2022/06/04 06:16:32;;;;;;;1.70;1.60;;;;;;;16.69;61.03;96804.19;6129032;23;20159;-91
2022/06/04 06:18:59;;;;;;;1.73;1.57;;;;;;;17.59;60.96;96964.94;6104164;23;20179;-92
2022/06/04 06:21:37;;;;;;;1.60;1.50;;;;;;;17.72;61.18;96928.13;6087205;23;20179;-91
2022/06/04 06:24:25;;;;;;;1.80;1.70;;;;;;;18.14;60.82;97098.28;6079656;23;20179;-91
2022/06/04 06:30:05;;;;;;;1.80;1.70;;;;;;;17.21;60.98;96861.09;6156679;23;20205;-91
2022/06/04 06:32:46;;;;;;;1.57;1.47;;;;;;;15.90;60.44;96635.56;6139021;23;20182;-90
2022/06/04 06:48:39;;;;;;;1.63;1.50;;;;;;;16.31;60.63;96726.66;6155311;23;20179;-90
2022/06/04 07:31:36;;;;;;;5.53;3.57;;;;;;;18.30;64.19;97119.16;6153761;23;20206;-89
2022/06/04 07:34:03;;;;;;;10.43;3.80;;;;;;;17.14;64.26;96945.44;6079772;23;20198;-87
2022/06/04 07:36:32;;;;;;;11.23;3.70;;;;;;;18.38;64.28;97144.09;6080071;23;20234;-86
2022/06/04 07:38:59;;;;;;;12.27;3.80;;;;;;;18.41;64.06;97200.16;6078001;23;20175;-91
2022/06/04 07:41:28;;;;;;;11.07;3.80;;;;;;;18.13;63.74;97147.41;6100199;23;20160;-92
2022/06/04 07:43:54;;;;;;;16.97;3.50;;;;;;;19.66;63.57;97419.50;6075570;23;20210;-90
2022/06/04 07:46:22;;;;;;;14.60;3.43;;;;;;;18.44;63.13;97217.22;6078546;23;20230;-89
2022/06/04 07:48:48;;;;;;;10.80;3.80;;;;;;;19.10;63.07;97279.03;6124981;23;20209;-91
2022/06/04 07:51:28;;;;;;;12.13;3.63;;;;;;;16.69;62.90;96925.09;6103267;23;20199;-89
2022/06/04 07:53:54;;;;;;;9.43;3.03;;;;;;;19.88;63.27;97444.06;6126917;23;20191;-93
2022/06/04 07:56:36;;;;;;;12.50;3.30;;;;;;;21.50;62.79;97687.13;6085700;23;20190;-94
2022/06/04 07:59:15;;;;;;;9.47;2.83;;;;;;;21.50;62.82;97697.34;6129289;23;20155;-93
2022/06/04 08:01:58;;;;;;;9.90;3.50;;;;;;;16.31;62.19;96789.16;6132151;23;20163;-90
2022/06/04 08:04:26;;;;;;;5.60;3.13;;;;;;;20.50;62.44;97526.22;6079710;23;20179;-91
2022/06/04 08:06:52;;;;;;;10.13;3.40;;;;;;;20.33;62.52;97499.25;6079338;23;20218;-94
2022/06/04 08:09:19;;;;;;;7.37;2.80;;;;;;;19.18;62.37;97266.56;6079307;23;20215;-93
2022/06/04 08:11:46;;;;;;;6.90;3.27;;;;;;;18.80;62.37;97195.63;6079409;23;20166;-94
2022/06/04 08:14:21;;;;;;;9.67;3.20;;;;;;;19.05;62.59;97274.59;6091430;23;20187;-90
2022/06/04 08:16:59;;;;;;;9.20;3.73;;;;;;;17.59;62.51;97028.44;6068871;23;20194;-91
2022/06/04 08:19:27;;;;;;;6.90;3.57;;;;;;;18.38;62.08;97155.97;6071861;23;20163;-90
2022/06/04 08:21:55;;;;;;;8.07;3.43;;;;;;;19.32;62.44;97256.06;6069500;23;20183;-92
2022/06/04 08:24:22;;;;;;;7.33;3.20;;;;;;;16.02;62.07;96680.78;6068585;23;20183;-91
2022/06/04 08:26:53;;;;;;;7.10;3.67;;;;;;;18.48;61.99;97137.66;6068845;23;20185;-91
2022/06/04 08:29:20;;;;;;;7.20;3.40;;;;;;;20.04;62.28;97395.31;6093068;23;20183;-91
2022/06/04 08:31:47;;;;;;;6.23;3.33;;;;;;;20.41;62.61;97491.84;6093164;23;20170;-92
2022/06/04 08:34:14;;;;;;;5.50;3.47;;;;;;;18.28;62.29;97108.94;6093272;23;20210;-93
2022/06/04 08:36:41;;;;;;;10.17;3.50;;;;;;;16.14;62.11;96682.09;6066954;23;20186;-89
2022/06/04 08:39:08;;;;;;;4.27;3.33;;;;;;;17.04;62.26;96830.81;6092807;23;20186;-92
2022/06/04 08:41:54;;;;;;;14.30;3.40;;;;;;;21.50;62.70;97591.66;6093254;23;20203;-93
2022/06/04 08:44:42;;;;;;;5.83;3.60;;;;;;;17.85;62.30;96976.88;6095114;23;20201;-90
2022/06/04 08:47:31;;;;;;;4.43;3.47;;;;;;;21.48;62.42;97606.94;6101491;23;20175;-93
2022/06/04 08:50:13;;;;;;;6.90;4.10;;;;;;;17.30;62.21;96891.03;6125752;23;20199;-90
2022/06/04 08:53:01;;;;;;;6.10;3.27;;;;;;;18.49;62.39;97154.63;6077368;23;20163;-93
2022/06/04 08:58:56;;;;;;;4.53;3.80;;;;;;;21.47;62.22;97610.31;6110673;23;20171;-88
2022/06/04 09:01:29;;;;;;;4.57;3.30;;;;;;;18.01;62.11;97055.44;6151428;23;20278;-93
2022/06/04 09:04:33;;;;;;;4.60;3.57;;;;;;;21.47;62.31;97606.91;6102555;23;20218;-93
2022/06/04 09:07:00;;;;;;;5.00;3.30;;;;;;;21.49;62.42;97612.91;6150313;23;20175;-93
2022/06/04 09:09:33;;;;;;;4.30;3.90;;;;;;;17.21;62.06;96893.22;6125492;23;20198;-89
2022/06/04 09:12:18;;;;;;;4.03;3.53;;;;;;;21.47;62.48;97622.25;6074410;23;20155;-94
2022/06/04 09:14:50;;;;;;;5.43;3.70;;;;;;;19.14;62.50;97224.84;6116075;23;20194;-91
2022/06/04 09:17:19;;;;;;;5.77;3.50;;;;;;;20.70;62.25;97520.09;6112038;23;20178;-91
2022/06/04 09:19:52;;;;;;;5.87;3.73;;;;;;;21.48;64.63;97637.63;6097428;23;20202;-93
2022/06/04 09:22:23;;;;;;;5.47;4.50;;;;;;;20.33;66.09;97471.16;6101674;23;20187;-93
2022/06/04 09:24:50;;;;;;;11.20;9.80;;;;;;;19.62;70.25;97336.09;6092836;23;20280;-90
2022/06/04 09:28:25;;;;;;;16.73;15.07;;;;;;;18.39;76.10;97105.13;6071982;23;20358;-90
2022/06/04 09:30:59;;;;;;;13.93;12.53;;;;;;;18.50;70.68;97152.16;5986853;24;20504;-90
2022/06/04 09:33:35;;;;;;;15.13;13.60;;;;;;;21.56;70.38;97638.72;5955955;24;20182;-92
2022/06/04 09:36:01;;;;;;;16.30;14.00;;;;;;;18.53;69.12;97103.91;6090007;23;20511;-90
2022/06/04 09:38:32;;;;;;;15.80;14.20;;;;;;;17.33;69.88;96901.28;6120114;23;20177;-91
2022/06/04 09:41:04;;;;;;;14.10;12.70;;;;;;;19.60;68.49;97296.09;6122434;23;20198;-94
2022/06/04 09:43:31;;;;;;;13.80;11.93;;;;;;;18.37;66.92;97075.31;6095088;23;20174;-92
2022/06/04 09:46:04;;;;;;;13.33;12.00;;;;;;;17.56;66.78;96903.00;6072089;23;20179;-92
2022/06/04 09:48:32;;;;;;;12.07;10.77;;;;;;;19.73;66.58;97291.44;6092631;23;20210;-90
2022/06/04 09:51:04;;;;;;;12.70;11.50;;;;;;;18.85;66.63;97140.63;6090505;23;20183;-91
2022/06/04 09:53:32;;;;;;;11.87;10.77;;;;;;;17.37;66.42;96925.97;6092114;23;20171;-93
2022/06/04 09:56:26;;;;;;;13.93;11.10;;;;;;;17.43;66.02;96908.41;6116934;23;20179;-93
2022/06/04 09:58:52;;;;;;;11.03;9.93;;;;;;;18.55;65.88;97097.19;6098197;23;20140;-89
2022/06/04 10:01:23;;;;;;;12.43;11.27;;;;;;;19.04;66.16;97184.59;6069320;23;20226;-92
2022/06/04 10:04:02;;;;;;;12.33;10.47;;;;;;;20.29;66.47;97381.69;6116266;23;20202;-91
2022/06/04 10:06:36;;;;;;;11.40;10.37;;;;;;;18.70;66.03;97084.13;6074460;23;20185;-93
2022/06/04 10:11:52;;;;;;;11.27;10.17;;;;;;;17.29;65.65;96876.59;6100868;23;20167;-92
2022/06/04 10:14:37;;;;;;;11.37;10.27;;;;;;;19.19;65.84;97176.59;6116810;23;20231;-90
2022/06/04 10:17:06;;;;;;;10.17;9.17;;;;;;;20.15;65.39;97378.69;6070892;23;20230;-90
2022/06/04 10:19:34;;;;;;;10.37;9.27;;;;;;;18.21;65.45;96990.00;6093087;23;20231;-91
2022/06/04 10:22:05;;;;;;;10.33;9.33;;;;;;;21.58;65.50;97579.94;6091310;23;20163;-90
2022/06/04 10:24:49;;;;;;;10.60;9.60;;;;;;;16.08;65.30;96630.34;6117025;23;20198;-91
2022/06/04 10:27:22;;;;;;;9.90;8.90;;;;;;;21.56;64.93;97579.06;6092836;23;20185;-92
2022/06/04 10:29:57;;;;;;;9.70;8.80;;;;;;;17.56;64.83;96896.22;6140064;23;20187;-92
2022/06/04 10:32:55;;;;;;;9.60;8.70;;;;;;;21.56;65.46;97587.56;6094888;23;20211;-90
2022/06/04 10:35:25;;;;;;;10.47;9.37;;;;;;;21.56;65.26;97579.06;6117389;23;20221;-89
2022/06/04 10:37:58;;;;;;;9.63;8.63;;;;;;;21.57;65.28;97580.78;6143055;23;20175;-91
2022/06/04 10:40:49;;;;;;;10.27;9.23;;;;;;;20.65;65.30;97437.34;6120129;23;20182;-90
2022/06/04 10:43:54;;;;;;;10.40;9.40;;;;;;;21.55;65.53;97590.09;6142588;23;20605;-91
2022/06/04 10:46:27;;;;;;;10.47;9.47;;;;;;;21.56;65.18;97596.94;6092208;23;20167;-93
2022/06/04 10:48:58;;;;;;;9.67;8.57;;;;;;;18.25;65.14;97065.59;6112795;23;20250;-90
2022/06/04 10:51:52;;;;;;;9.63;8.73;;;;;;;17.94;65.02;96956.88;6090231;23;20160;-90
2022/06/04 10:54:32;;;;;;;9.83;8.90;;;;;;;21.55;65.07;97590.97;6140294;23;20749;-89
2022/06/04 10:57:24;;;;;;;9.70;8.80;;;;;;;21.55;65.43;97593.50;6091631;23;20174;-91
2022/06/04 11:00:18;;;;;;;8.97;8.17;;;;;;;21.56;65.53;97595.25;6116913;23;20151;-91
2022/06/04 11:02:56;;;;;;;10.63;7.90;;;;;;;18.43;63.89;97088.28;6114258;23;20170;-91
2022/06/04 11:05:43;;;;;;;8.43;7.53;;;;;;;21.53;63.46;97607.94;6120177;23;20682;-92
2022/06/04 11:12:02;;;;;;;8.03;6.10;;;;;;;18.10;62.58;97021.81;6136352;23;20250;-91
2022/06/04 11:14:35;;;;;;;8.83;6.60;;;;;;;21.51;62.64;97604.47;6118163;23;20183;-92
2022/06/04 11:17:18;;;;;;;9.60;7.20;;;;;;;19.78;62.69;97333.22;6115866;23;20163;-92
2022/06/04 11:20:03;;;;;;;10.97;7.53;;;;;;;19.07;62.67;97237.31;6095751;23;20155;-93
2022/06/04 11:23:09;;;;;;;9.80;7.17;;;;;;;19.79;62.97;97317.13;6095601;23;20870;-89
2022/06/04 11:25:38;;;;;;;13.80;8.03;;;;;;;18.59;62.77;97142.28;6126022;23;20183;-91
2022/06/04 11:28:12;;;;;;;10.90;7.20;;;;;;;16.93;62.39;96842.28;6100794;23;20183;-94
2022/06/04 11:30:58;;;;;;;10.27;7.57;;;;;;;21.50;62.91;97623.19;6104131;23;20190;-90
2022/06/04 11:33:42;;;;;;;9.50;7.70;;;;;;;21.51;62.82;97604.47;6130091;23;20159;-93
2022/06/04 11:36:18;;;;;;;10.23;6.70;;;;;;;21.50;63.04;97601.88;6102573;23;20153;-89
2022/06/04 11:39:09;;;;;;;11.33;7.40;;;;;;;21.49;62.95;97590.78;6153538;23;20195;-90
2022/06/04 12:03:48;;;;;;;8.57;7.13;;;;;;;20.17;62.41;97412.81;6181878;23;20189;-94
2022/06/04 12:09:26;;;;;;;10.50;7.40;;;;;;;18.22;62.60;97042.59;6167126;23;20245;-95
2022/06/04 12:11:55;;;;;;;12.60;7.13;;;;;;;19.86;62.68;97348.78;6160304;23;20158;-94
2022/06/04 12:14:28;;;;;;;11.33;7.60;;;;;;;21.47;62.76;97573.66;6167335;23;20211;-93
2022/06/04 15:36:14;;;;;;;5.13;4.63;;;;;;;15.54;62.38;96656.13;6144234;23;20195;-88
2022/06/04 15:39:02;;;;;;;5.10;4.70;;;;;;;17.63;62.42;96963.38;6142717;23;20186;-89
2022/06/04 15:41:32;;;;;;;4.83;4.43;;;;;;;21.37;62.71;97575.06;6148247;23;20195;-89
2022/06/04 15:44:09;;;;;;;5.13;4.63;;;;;;;18.12;62.80;97059.19;6143444;23;20195;-89
2022/06/04 16:24:25;;;;;;;5.37;4.87;;;;;;;21.43;63.05;97585.47;6164615;23;20190;-90
2022/06/04 16:32:04;;;;;;;5.60;5.00;;;;;;;21.43;63.15;97589.72;6094346;23;20263;-89
2022/06/04 16:40:00;;;;;;;7.43;5.03;;;;;;;21.26;63.68;97561.06;6010848;23;20244;-87
2022/06/04 18:09:45;;;;;;;5.43;4.13;;;;;;;16.46;63.12;96787.25;6181283;23;20186;-88
2022/06/04 18:25:42;;;;;;;5.17;4.40;;;;;;;18.31;63.02;97125.97;6182921;23;20213;-92
2022/06/04 18:28:15;;;;;;;5.40;4.00;;;;;;;18.70;63.28;97203.75;6147125;23;20185;-93
2022/06/04 18:30:53;;;;;;;5.40;3.93;;;;;;;18.38;63.21;97139.00;6148632;23;20190;-90
2022/06/04 18:33:20;;;;;;;4.57;4.13;;;;;;;20.78;63.76;97604.59;6111505;23;20157;-90
2022/06/04 18:55:43;;;;;;;5.43;3.73;;;;;;;18.68;63.00;97267.31;6158358;23;20193;-92
2022/06/04 19:01:05;;;;;;;5.57;4.40;;;;;;;18.80;63.29;97262.66;6150985;23;20197;-93
2022/06/04 19:03:33;;;;;;;4.17;3.73;;;;;;;18.25;63.22;97134.25;6097462;23;20199;-90
2022/06/04 19:06:00;;;;;;;4.20;3.80;;;;;;;17.70;63.13;97093.25;6123620;23;20158;-90
2022/06/04 19:08:27;;;;;;;4.23;3.83;;;;;;;18.43;63.15;97162.94;6098917;23;20175;-93
2022/06/04 19:13:45;;;;;;;4.23;3.80;;;;;;;18.59;63.12;97243.22;6106421;23;20252;-91
2022/06/04 19:16:13;;;;;;;4.87;3.70;;;;;;;17.08;62.81;96955.38;6099183;23;20207;-92
2022/06/04 19:18:42;;;;;;;5.13;3.90;;;;;;;17.61;63.21;97034.47;6124639;23;20163;-92
2022/06/04 19:26:43;;;;;;;4.33;3.90;;;;;;;17.51;63.02;97064.53;6123844;23;20176;-91
2022/06/04 19:29:24;;;;;;;4.13;3.73;;;;;;;20.25;63.12;97563.59;6078494;23;20162;-92
2022/06/04 19:31:53;;;;;;;4.73;3.67;;;;;;;17.45;63.21;97029.63;6101453;23;20208;-93
2022/06/04 19:34:20;;;;;;;6.13;3.77;;;;;;;18.44;62.93;97250.31;6075870;23;20259;-91
2022/06/04 19:39:30;;;;;;;4.17;3.83;;;;;;;20.23;62.95;97555.91;6124390;23;20183;-92
2022/06/04 19:41:57;;;;;;;3.63;3.33;;;;;;;18.17;63.04;97196.69;6077281;23;20183;-91
2022/06/04 19:44:24;;;;;;;4.57;3.70;;;;;;;18.30;62.90;97206.53;6071729;23;20195;-91
2022/06/04 19:46:56;;;;;;;3.87;3.57;;;;;;;21.35;63.15;97721.56;6076838;23;20152;-93
2022/06/04 19:49:25;;;;;;;4.93;3.63;;;;;;;21.37;63.18;97713.13;6076406;23;20175;-93
2022/06/04 19:51:52;;;;;;;4.50;4.07;;;;;;;16.16;62.88;96812.28;6099639;23;20193;-91
2022/06/04 19:57:06;;;;;;;3.77;3.47;;;;;;;17.94;62.99;97137.34;6083755;23;20147;-92
2022/06/04 19:59:52;;;;;;;4.20;3.80;;;;;;;18.26;62.74;97239.41;6103933;23;20167;-92
2022/06/04 20:02:18;;;;;;;4.23;3.83;;;;;;;19.58;63.37;97451.53;6076492;23;20160;-92
2022/06/04 20:04:59;;;;;;;4.00;3.60;;;;;;;16.19;62.73;96858.03;6059324;23;20199;-92
2022/06/04 20:07:26;;;;;;;3.60;3.30;;;;;;;15.55;62.59;96706.84;6076580;23;20160;-93
2022/06/04 20:09:53;;;;;;;3.93;3.60;;;;;;;19.29;62.81;97355.34;6076230;23;20175;-93
2022/06/04 20:12:22;;;;;;;4.20;3.80;;;;;;;19.44;62.81;97427.22;6052820;23;20189;-90
2022/06/04 20:14:52;;;;;;;3.97;3.67;;;;;;;17.98;63.38;97149.41;6100425;23;20183;-90
2022/06/04 20:17:42;;;;;;;3.70;3.40;;;;;;;21.43;63.14;97713.31;6076552;23;20203;-93
2022/06/04 20:20:27;;;;;;;4.43;4.03;;;;;;;18.40;62.92;97187.38;6124931;23;20140;-92
2022/06/04 20:22:54;;;;;;;3.97;3.57;;;;;;;19.54;63.03;97424.19;6075498;23;20156;-90
2022/06/04 20:25:46;;;;;;;4.03;3.63;;;;;;;21.45;62.98;97723.59;6052554;23;20192;-92
2022/06/04 20:28:12;;;;;;;4.20;3.80;;;;;;;17.31;62.97;97028.22;6099640;23;20163;-91
2022/06/04 20:30:39;;;;;;;4.57;3.80;;;;;;;16.58;63.13;96901.00;6076176;23;20203;-90
2022/06/04 20:33:06;;;;;;;3.60;3.30;;;;;;;18.24;63.00;97216.47;6076358;23;20183;-93
